createdAt,value
2019-04-11T00:02:17.403Z,97494.88
2019-04-11T00:04:46.417Z,97497.42
2019-04-11T00:07:16.154Z,97495.70
2019-04-11T00:09:45.010Z,97494.42
2019-04-11T00:12:14.522Z,97489.69
2019-04-11T00:14:44.203Z,97486.23
2019-04-11T00:17:17.509Z,97491.83
2019-04-11T00:19:47.435Z,97486.16
2019-04-11T00:22:17.301Z,97489.86
2019-04-11T00:24:47.149Z,97485.42
2019-04-11T00:27:17.132Z,97491.09
2019-04-11T00:29:46.984Z,97492.68
2019-04-11T00:32:17.035Z,97489.30
2019-04-11T00:34:47.010Z,97491.09
2019-04-11T00:37:16.902Z,97481.04
2019-04-11T00:39:45.876Z,97485.22
2019-04-11T00:42:14.618Z,97477.33
2019-04-11T00:44:43.318Z,97481.70
2019-04-11T00:47:15.148Z,97480.09
2019-04-11T00:49:44.177Z,97480.55
2019-04-11T00:52:13.981Z,97473.27
2019-04-11T00:54:43.130Z,97476.34
2019-04-11T00:57:12.780Z,97479.42
2019-04-11T00:59:42.617Z,97478.61
2019-04-11T01:02:15.522Z,97476.41
2019-04-11T01:04:45.340Z,97476.92
2019-04-11T01:07:14.515Z,97476.92
2019-04-11T01:09:44.305Z,97480.80
2019-04-11T01:12:13.215Z,97475.63
2019-04-11T01:14:42.697Z,97480.34
2019-04-11T01:17:17.058Z,97485.99
2019-04-11T01:19:46.808Z,97477.84
2019-04-11T01:22:16.205Z,97478.30
2019-04-11T01:24:46.057Z,97478.30
2019-04-11T01:27:16.059Z,97478.70
2019-04-11T01:29:44.943Z,97485.66
2019-04-11T01:32:14.640Z,97490.50
2019-04-11T01:34:44.528Z,97486.61
2019-04-11T01:37:13.394Z,97488.31
2019-04-11T01:39:43.738Z,97479.67
2019-04-11T01:42:13.216Z,97477.09
2019-04-11T01:44:43.014Z,97469.79
2019-04-11T01:47:15.018Z,97468.07
2019-04-11T01:49:44.098Z,97465.02
2019-04-11T01:52:13.926Z,97471.49
2019-04-11T01:54:43.795Z,97472.73
2019-04-11T01:57:13.777Z,97479.69
2019-04-11T01:59:43.728Z,97478.44
2019-04-11T02:02:17.112Z,97474.09
2019-04-11T02:04:50.155Z,97475.30
2019-04-11T02:07:18.876Z,97476.26
2019-04-11T02:09:48.452Z,97474.09
2019-04-11T02:12:18.240Z,97473.68
2019-04-11T02:14:48.130Z,97469.36
2019-04-11T02:17:16.890Z,97466.72
2019-04-11T02:19:45.611Z,97463.31
2019-04-11T02:22:15.987Z,97465.44
2019-04-11T02:24:54.060Z,97457.66
2019-04-11T02:27:25.888Z,97460.23
2019-04-11T02:29:55.182Z,97451.63
2019-04-11T02:32:25.510Z,97454.98
2019-04-11T02:34:58.902Z,97457.98
2019-04-11T02:37:26.354Z,97456.83
2019-04-11T02:39:57.480Z,97465.06
2019-04-11T02:42:27.483Z,97458.53
2019-04-11T02:45:13.422Z,97459.81
2019-04-11T02:47:31.832Z,97459.78
2019-04-11T02:49:59.172Z,97460.98
2019-04-11T02:52:28.268Z,97457.01
2019-04-11T02:54:57.449Z,97462.29
2019-04-11T02:57:26.516Z,97463.22
2019-04-11T02:59:56.404Z,97460.59
2019-04-11T03:02:26.634Z,97471.73
2019-04-11T03:04:56.383Z,97467.06
2019-04-11T03:07:25.865Z,97472.23
2019-04-11T03:09:56.441Z,97470.47
2019-04-11T03:12:25.059Z,97476.53
2019-04-11T03:15:09.317Z,97470.13
2019-04-11T03:17:30.773Z,97467.47
2019-04-11T03:20:09.231Z,97471.73
2019-04-11T03:22:26.948Z,97476.03
2019-04-11T03:24:58.319Z,97476.02
2019-04-11T03:27:28.675Z,97478.13
2019-04-11T03:29:58.062Z,97484.67
2019-04-11T03:35:50.962Z,97493.77
2019-04-11T03:37:55.128Z,97497.39
2019-04-11T03:40:22.662Z,97495.15
2019-04-11T03:42:45.158Z,97490.76
2019-04-11T03:45:23.945Z,97498.11
2019-04-11T03:47:43.516Z,97501.06
2019-04-11T03:50:08.541Z,97503.41
2019-04-11T03:52:34.804Z,97499.85
2019-04-11T03:55:08.389Z,97511.18
2019-04-11T03:57:37.310Z,97503.88
2019-04-11T04:00:07.558Z,97506.46
2019-04-11T04:02:37.189Z,97509.94
2019-04-11T04:05:08.776Z,97503.88
2019-04-11T04:07:40.107Z,97508.64
2019-04-11T04:10:18.399Z,97509.40
2019-04-11T04:12:48.100Z,97515.89
2019-04-11T04:15:35.765Z,97516.84
2019-04-11T04:18:03.533Z,97522.49
2019-04-11T04:20:53.189Z,97519.45
2019-04-11T04:23:30.013Z,97516.37
2019-04-11T04:26:01.107Z,97516.84
2019-04-11T04:28:31.806Z,97519.38
2019-04-11T04:31:02.092Z,97522.97
2019-04-11T04:33:33.023Z,97527.38
2019-04-11T04:36:02.396Z,97523.08
2019-04-11T04:38:33.772Z,97519.09
2019-04-11T04:41:16.868Z,97526.88
2019-04-11T04:43:36.401Z,97520.03
2019-04-11T04:46:25.033Z,97519.67
2019-04-11T04:48:37.846Z,97521.86
2019-04-11T04:51:09.109Z,97526.27
2019-04-11T04:53:36.934Z,97526.26
2019-04-11T04:56:06.773Z,97528.44
2019-04-11T04:58:35.743Z,97525.00
2019-04-11T05:01:06.890Z,97528.52
2019-04-11T05:03:34.949Z,97520.75
2019-04-11T05:06:04.249Z,97519.47
2019-04-11T05:08:34.691Z,97509.97
2019-04-11T05:11:04.508Z,97518.17
2019-04-11T05:13:34.422Z,97509.09
2019-04-11T05:16:14.530Z,97508.25
2019-04-11T05:18:34.312Z,97506.52
2019-04-11T05:21:03.320Z,97506.88
2019-04-11T05:23:32.041Z,97493.37
2019-04-11T05:26:01.614Z,97516.72
2019-04-11T05:28:31.784Z,97518.31
2019-04-11T05:31:00.622Z,97519.38
2019-04-11T05:33:29.463Z,97518.34
2019-04-11T05:35:58.529Z,97526.22
2019-04-11T05:38:27.570Z,97532.34
2019-04-11T05:40:56.641Z,97532.05
2019-04-11T05:43:29.301Z,97529.77
2019-04-11T05:45:56.752Z,97534.36
2019-04-11T05:48:36.844Z,97529.89
2019-04-11T05:51:06.833Z,97528.17
2019-04-11T05:53:36.974Z,97527.62
2019-04-11T05:56:16.722Z,97524.97
2019-04-11T05:58:47.364Z,97527.52
2019-04-11T06:01:24.378Z,97522.27
2019-04-11T06:03:55.526Z,97518.98
2019-04-11T06:06:31.970Z,97510.01
2019-04-11T06:09:04.060Z,97521.36
2019-04-11T06:11:34.919Z,97509.80
2019-04-11T06:14:11.437Z,97512.88
2019-04-11T06:16:47.278Z,97506.88
2019-04-11T06:19:22.863Z,97506.04
2019-04-11T06:22:00.282Z,97508.67
2019-04-11T06:24:40.609Z,97511.65
2019-04-11T06:27:16.695Z,97506.58
2019-04-11T06:29:47.418Z,97508.56
2019-04-11T06:32:27.856Z,97502.70
2019-04-11T06:35:04.182Z,97506.85
2019-04-11T06:37:52.592Z,97502.92
2019-04-11T06:40:32.679Z,97511.42
2019-04-11T06:43:20.306Z,97510.03
2019-04-11T06:45:50.762Z,97512.39
2019-04-11T06:48:30.035Z,97515.13
2019-04-11T06:51:06.106Z,97514.03
2019-04-11T06:53:36.515Z,97515.59
2019-04-11T06:56:06.858Z,97518.16
2019-04-11T06:58:39.855Z,97516.03
2019-04-11T07:01:16.024Z,97523.22
2019-04-11T07:03:49.270Z,97529.48
2019-04-11T07:06:23.553Z,97528.84
2019-04-11T07:09:10.728Z,97532.98
2019-04-11T07:11:53.128Z,97529.30
2019-04-11T07:14:23.523Z,97536.55
2019-04-11T07:17:15.408Z,97547.55
2019-04-11T07:19:48.797Z,97534.49
2019-04-11T07:22:35.278Z,97525.76
2019-04-11T07:25:22.663Z,97531.75
2019-04-11T07:28:02.140Z,97529.88
2019-04-11T07:30:49.502Z,97527.70
2019-04-11T07:33:33.261Z,97529.84
2019-04-11T07:36:20.994Z,97535.87
2019-04-11T07:39:03.667Z,97534.08
2019-04-11T07:41:38.547Z,97537.13
2019-04-11T07:44:17.724Z,97529.98
2019-04-11T07:47:13.628Z,97531.04
2019-04-11T07:49:39.331Z,97524.14
2019-04-11T07:52:17.594Z,97531.14
2019-04-11T07:54:46.320Z,97520.33
2019-04-11T07:57:17.171Z,97526.35
2019-04-11T08:00:03.641Z,97526.98
2019-04-11T08:02:50.498Z,97523.25
2019-04-11T08:05:37.317Z,97526.55
2019-04-11T08:08:24.150Z,97521.50
2019-04-11T08:11:03.393Z,97529.49
2019-04-11T08:13:34.645Z,97528.83
2019-04-11T08:16:22.383Z,97524.34
2019-04-11T08:19:03.489Z,97525.22
2019-04-11T08:21:50.425Z,97522.78
2019-04-11T08:24:29.864Z,97523.69
2019-04-11T08:27:17.563Z,97531.52
2019-04-11T08:29:48.855Z,97519.98
2019-04-11T08:32:25.455Z,97521.89
2019-04-11T08:35:02.074Z,97522.28
2019-04-11T08:37:48.555Z,97530.86
2019-04-11T08:40:19.849Z,97523.97
2019-04-11T08:42:50.896Z,97518.86
2019-04-11T08:45:21.577Z,97525.43
2019-04-11T08:47:54.614Z,97516.59
2019-04-11T08:50:23.684Z,97508.58
2019-04-11T08:52:56.739Z,97509.05
2019-04-11T08:55:27.340Z,97509.52
2019-04-11T08:57:58.327Z,97506.22
2019-04-11T09:00:34.852Z,97506.83
2019-04-11T09:03:05.179Z,97516.05
2019-04-11T09:05:44.473Z,97502.08
2019-04-11T09:08:30.167Z,97512.29
2019-04-11T09:11:17.017Z,97505.06
2019-04-11T09:13:53.585Z,97508.75
2019-04-11T09:16:39.637Z,97501.98
2019-04-11T09:19:10.469Z,97504.62
2019-04-11T09:21:56.947Z,97506.03
2019-04-11T09:24:39.259Z,97500.13
2019-04-11T09:27:22.596Z,97500.16
2019-04-11T09:29:58.962Z,97504.34
2019-04-11T09:32:46.519Z,97502.48
2019-04-11T09:35:22.665Z,97505.14
2019-04-11T09:37:51.805Z,97510.89
2019-04-11T09:40:39.587Z,97507.22
2019-04-11T09:43:17.895Z,97504.02
2019-04-11T09:46:04.627Z,97502.90
2019-04-11T09:48:50.514Z,97505.80
2019-04-11T09:51:38.035Z,97503.98
2019-04-11T09:54:26.784Z,97504.55
2019-04-11T09:57:06.017Z,97497.95
2019-04-11T09:59:49.627Z,97501.69
2019-04-11T10:02:20.970Z,97499.23
2019-04-11T10:04:52.250Z,97498.61
2019-04-11T10:07:28.575Z,97495.02
2019-04-11T10:10:04.765Z,97493.20
2019-04-11T10:12:52.060Z,97493.92
2019-04-11T10:15:23.252Z,97494.13
2019-04-11T10:18:25.329Z,97495.39
2019-04-11T10:20:45.601Z,97495.55
2019-04-11T10:23:32.759Z,97488.43
2019-04-11T10:26:03.412Z,97491.44
2019-04-11T10:28:43.910Z,97491.94
2019-04-11T10:31:12.752Z,97489.92
2019-04-11T10:33:58.011Z,97488.70
2019-04-11T10:36:29.349Z,97486.65
2019-04-11T10:39:15.394Z,97491.36
2019-04-11T10:41:46.307Z,97490.70
2019-04-11T10:44:25.735Z,97494.88
2019-04-11T10:47:02.059Z,97491.80
2019-04-11T10:49:48.743Z,97493.97
2019-04-11T10:52:28.781Z,97504.44
2019-04-11T10:55:05.247Z,97499.72
2019-04-11T10:57:38.377Z,97499.96
2019-04-11T11:00:18.911Z,97503.16
2019-04-11T11:05:47.233Z,97508.73
2019-04-11T11:08:33.323Z,97505.38
2019-04-11T11:11:07.853Z,97507.98
2019-04-11T11:13:39.527Z,97513.25
2019-04-11T11:16:10.238Z,97502.02
2019-04-11T11:19:24.593Z,97504.48
2019-04-11T11:21:30.568Z,97508.36
2019-04-11T11:24:05.388Z,97505.96
2019-04-11T11:26:33.752Z,97510.38
2019-04-11T11:29:15.789Z,97511.30
2019-04-11T11:31:49.381Z,97509.17
2019-04-11T11:34:23.677Z,97503.45
2019-04-11T11:36:54.973Z,97512.59
2019-04-11T11:39:43.582Z,97510.55
2019-04-11T11:42:30.430Z,97506.34
2019-04-11T11:45:02.377Z,97504.28
2019-04-11T11:47:51.139Z,97517.38
2019-04-11T11:50:23.419Z,97506.03
2019-04-11T11:53:12.948Z,97520.56
2019-04-11T11:55:41.406Z,97514.86
2019-04-11T11:58:23.710Z,97519.76
2019-04-11T12:00:56.909Z,97525.15
2019-04-11T12:03:30.993Z,97518.86
2019-04-11T12:06:05.297Z,97536.09
2019-04-11T12:08:46.589Z,97524.53
2019-04-11T12:11:18.778Z,97526.23
2019-04-11T12:13:49.116Z,97528.35
2019-04-11T12:16:21.601Z,97530.54
2019-04-11T12:19:04.624Z,97530.61
2019-04-11T12:21:35.170Z,97532.92
2019-04-11T12:24:07.057Z,97527.39
2019-04-11T12:26:45.782Z,97534.23
2019-04-11T12:29:32.252Z,97535.10
2019-04-11T12:32:02.751Z,97532.48
2019-04-11T12:34:33.024Z,97529.47
2019-04-11T12:37:02.595Z,97530.89
2019-04-11T12:39:51.176Z,97529.80
2019-04-11T12:42:21.448Z,97526.61
2019-04-11T12:45:07.777Z,97526.77
2019-04-11T12:47:38.630Z,97524.81
2019-04-11T12:50:28.020Z,97529.48
2019-04-11T12:53:04.456Z,97524.28
2019-04-11T12:55:50.058Z,97526.25
2019-04-11T12:58:20.392Z,97529.30
2019-04-11T13:01:02.516Z,97528.62
2019-04-11T13:03:48.979Z,97528.08
2019-04-11T13:06:35.847Z,97534.16
2019-04-11T13:09:15.292Z,97532.72
2019-04-11T13:11:48.272Z,97530.91
2019-04-11T13:14:21.607Z,97532.86
2019-04-11T13:16:51.945Z,97535.66
2019-04-11T13:19:31.439Z,97531.69
2019-04-11T13:22:01.722Z,97539.13
2019-04-11T13:24:40.989Z,97525.24
2019-04-11T13:27:20.422Z,97541.35
2019-04-11T13:30:05.689Z,97548.58
2019-04-11T13:32:35.971Z,97557.45
2019-04-11T13:35:14.585Z,97558.01
2019-04-11T13:37:56.892Z,97554.23
2019-04-11T13:40:30.537Z,97554.86
2019-04-11T13:43:16.860Z,97557.69
2019-04-11T13:46:02.191Z,97560.00
2019-04-11T13:48:48.689Z,97559.36
2019-04-11T13:51:31.458Z,97561.37
2019-04-11T13:54:19.129Z,97553.35
2019-04-11T13:57:05.544Z,97558.17
2019-04-11T13:59:35.838Z,97555.97
2019-04-11T14:02:15.203Z,97550.84
2019-04-11T14:04:46.327Z,97560.00
2019-04-11T14:07:21.268Z,97556.55
2019-04-11T14:09:51.525Z,97550.62
2019-04-11T14:12:20.267Z,97548.25
2019-04-11T14:14:51.970Z,97537.68
2019-04-11T14:17:30.963Z,97545.00
2019-04-11T14:20:28.610Z,97542.42
2019-04-11T14:22:49.447Z,97547.14
2019-04-11T14:25:23.478Z,97549.39
2019-04-11T14:27:53.772Z,97545.98
2019-04-11T14:30:40.174Z,97545.29
2019-04-11T14:33:08.884Z,97540.47
2019-04-11T14:35:57.669Z,97542.06
2019-04-11T14:38:27.144Z,97535.31
2019-04-11T14:41:01.766Z,97532.59
2019-04-11T14:43:35.576Z,97531.80
2019-04-11T14:46:12.409Z,97526.50
2019-04-11T14:48:42.717Z,97523.57
2019-04-11T14:51:15.952Z,97524.98
2019-04-11T14:54:03.450Z,97519.03
2019-04-11T14:56:33.737Z,97520.26
2019-04-11T14:59:07.005Z,97520.67
2019-04-11T15:01:35.817Z,97524.45
2019-04-11T15:04:06.107Z,97522.70
2019-04-11T15:06:36.402Z,97523.98
2019-04-11T15:09:16.872Z,97520.84
2019-04-11T15:11:50.256Z,97516.44
2019-04-11T15:14:36.916Z,97515.80
2019-04-11T15:17:10.006Z,97509.63
2019-04-11T15:19:40.276Z,97509.79
2019-04-11T15:22:27.102Z,97513.23
2019-04-11T15:25:13.720Z,97509.11
2019-04-11T15:27:47.080Z,97505.17
2019-04-11T15:30:22.356Z,97502.31
2019-04-11T15:32:55.398Z,97509.23
2019-04-11T15:35:24.110Z,97501.04
2019-04-11T15:38:15.330Z,97503.30
2019-04-11T15:40:44.937Z,97503.55
2019-04-11T15:43:31.674Z,97507.48
2019-04-11T15:46:02.063Z,97506.83
2019-04-11T15:48:35.098Z,97499.44
2019-04-11T15:51:17.396Z,97511.27
2019-04-11T15:53:47.678Z,97501.33
2019-04-11T15:56:37.857Z,97501.07
2019-04-11T15:59:06.446Z,97507.15
2019-04-11T16:01:39.926Z,97500.93
2019-04-11T16:04:10.203Z,97508.54
2019-04-11T16:06:40.545Z,97508.69
2019-04-11T16:09:11.959Z,97516.31
2019-04-11T16:11:58.523Z,97519.42
2019-04-11T16:14:27.251Z,97515.67
2019-04-11T16:16:57.535Z,97514.56
2019-04-11T16:19:36.724Z,97525.59
2019-04-11T16:22:16.218Z,97526.14
2019-04-11T16:24:46.553Z,97517.91
2019-04-11T16:27:17.333Z,97524.50
2019-04-11T16:29:50.376Z,97525.29
2019-04-11T16:32:19.490Z,97520.83
2019-04-11T16:34:54.346Z,97521.34
2019-04-11T16:37:20.198Z,97527.50
2019-04-11T16:40:06.621Z,97525.35
2019-04-11T16:42:36.963Z,97524.45
2019-04-11T16:45:25.730Z,97529.19
2019-04-11T16:48:03.792Z,97530.98
2019-04-11T16:50:32.492Z,97530.20
2019-04-11T16:53:01.208Z,97521.83
2019-04-11T16:55:29.927Z,97529.27
2019-04-11T16:57:58.918Z,97529.30
2019-04-11T17:00:27.649Z,97528.73
2019-04-11T17:02:56.353Z,97527.77
2019-04-11T17:05:26.829Z,97534.42
2019-04-11T17:08:09.220Z,97533.78
2019-04-11T17:10:57.532Z,97534.41
2019-04-11T17:13:26.758Z,97534.18
2019-04-11T17:15:55.569Z,97533.99
2019-04-11T17:18:24.273Z,97534.91
2019-04-11T17:20:52.979Z,97535.47
2019-04-11T17:23:21.704Z,97544.34
2019-04-11T17:25:52.898Z,97548.27
2019-04-11T17:28:23.105Z,97553.59
2019-04-11T17:30:55.062Z,97558.02
2019-04-11T17:33:21.774Z,97558.16
2019-04-11T17:35:50.499Z,97567.34
2019-04-11T17:38:19.215Z,97571.39
2019-04-11T17:40:47.969Z,97573.58
2019-04-11T17:43:16.671Z,97575.75
2019-04-11T17:45:45.372Z,97585.44
2019-04-11T17:48:18.174Z,97595.03
2019-04-11T17:50:46.888Z,97598.89
2019-04-11T17:53:18.930Z,97598.48
2019-04-11T17:55:47.739Z,97607.56
2019-04-11T17:58:16.447Z,97609.30
2019-04-11T18:00:52.709Z,97611.09
2019-04-11T18:03:21.425Z,97621.56
2019-04-11T18:05:50.180Z,97623.33
2019-04-11T18:08:20.194Z,97622.50
2019-04-11T18:10:49.744Z,97626.43
2019-04-11T18:13:18.691Z,97631.99
2019-04-11T18:15:47.410Z,97635.94
2019-04-11T18:18:19.606Z,97624.63
2019-04-11T18:20:48.321Z,97633.64
2019-04-11T18:23:19.633Z,97635.77
2019-04-11T18:25:48.928Z,97635.26
2019-04-11T18:28:21.692Z,97644.75
2019-04-11T18:30:48.889Z,97638.69
2019-04-11T18:33:17.598Z,97644.39
2019-04-11T18:35:46.307Z,97649.14
2019-04-11T18:38:17.392Z,97651.40
2019-04-11T18:40:46.110Z,97655.33
2019-04-11T18:43:18.855Z,97648.80
2019-04-11T18:45:47.564Z,97648.82
2019-04-11T18:48:16.274Z,97651.41
2019-04-11T18:50:44.984Z,97655.83
2019-04-11T18:53:13.689Z,97653.25
2019-04-11T18:55:42.449Z,97653.33
2019-04-11T18:58:11.157Z,97655.52
2019-04-11T19:00:39.870Z,97653.39
2019-04-11T19:03:17.595Z,97665.59
2019-04-11T19:05:46.297Z,97663.91
2019-04-11T19:08:17.625Z,97655.23
2019-04-11T19:10:46.305Z,97650.84
2019-04-11T19:13:16.975Z,97656.91
2019-04-11T19:15:46.379Z,97660.41
2019-04-11T19:18:16.404Z,97656.09
2019-04-11T19:20:50.065Z,97656.58
2019-04-11T19:23:16.181Z,97651.83
2019-04-11T19:25:45.299Z,97651.86
2019-04-11T19:28:18.758Z,97654.47
2019-04-11T19:30:47.458Z,97654.94
2019-04-11T19:33:20.718Z,97654.52
2019-04-11T19:35:49.461Z,97650.19
2019-04-11T19:38:28.804Z,97657.17
2019-04-11T19:40:57.569Z,97656.30
2019-04-11T19:43:26.283Z,97653.27
2019-04-11T19:45:54.987Z,97651.09
2019-04-11T19:48:25.209Z,97652.39
2019-04-11T19:50:54.171Z,97653.70
2019-04-11T19:53:22.895Z,97645.92
2019-04-11T19:55:56.127Z,97649.83
2019-04-11T19:58:26.407Z,97650.27
2019-04-11T20:00:55.173Z,97640.25
2019-04-11T20:03:24.251Z,97644.14
2019-04-11T20:05:54.669Z,97643.31
2019-04-11T20:08:23.391Z,97644.63
2019-04-11T20:10:52.104Z,97629.46
2019-04-11T20:13:20.865Z,97648.55
2019-04-11T20:15:50.656Z,97648.08
2019-04-11T20:18:22.191Z,97651.16
2019-04-11T20:20:52.191Z,97652.05
2019-04-11T20:23:20.511Z,97649.03
2019-04-11T20:25:50.000Z,97651.63
2019-04-11T20:28:19.962Z,97658.13
2019-04-11T20:30:49.446Z,97657.68
2019-04-11T20:33:27.091Z,97661.52
2019-04-11T20:35:49.434Z,97667.63
2019-04-11T20:38:18.210Z,97670.23
2019-04-11T20:40:46.926Z,97671.98
2019-04-11T20:43:15.637Z,97678.48
2019-04-11T20:45:45.157Z,97682.31
2019-04-11T20:48:13.877Z,97684.87
2019-04-11T20:50:42.633Z,97683.58
2019-04-11T20:53:13.167Z,97682.28
2019-04-11T20:55:41.789Z,97687.42
2019-04-11T20:58:26.690Z,97683.44
2019-04-11T21:00:50.744Z,97687.67
2019-04-11T21:03:20.413Z,97692.84
2019-04-11T21:05:49.116Z,97696.61
2019-04-11T21:08:17.827Z,97702.61
2019-04-11T21:10:46.545Z,97705.16
2019-04-11T21:13:15.257Z,97705.59
2019-04-11T21:15:44.021Z,97706.86
2019-04-11T21:18:12.726Z,97714.27
2019-04-11T21:20:41.442Z,97709.14
2019-04-11T21:23:24.484Z,97716.45
2019-04-11T21:25:47.101Z,97723.72
2019-04-11T21:28:19.859Z,97724.45
2019-04-11T21:30:48.573Z,97723.56
2019-04-11T21:33:17.435Z,97728.67
2019-04-11T21:35:46.151Z,97723.91
2019-04-11T21:38:14.869Z,97727.89
2019-04-11T21:40:43.630Z,97738.02
2019-04-11T21:43:12.337Z,97733.98
2019-04-11T21:45:41.039Z,97732.10
2019-04-11T21:48:15.797Z,97740.07
2019-04-11T21:50:44.505Z,97748.82
2019-04-11T21:53:15.932Z,97747.92
2019-04-11T21:55:47.181Z,97745.39
2019-04-11T21:58:19.233Z,97739.84
2019-04-11T22:00:48.342Z,97734.27
2019-04-11T22:03:17.050Z,97730.84
2019-04-11T22:05:45.793Z,97724.00
2019-04-11T22:08:14.502Z,97724.86
2019-04-11T22:10:43.206Z,97723.73
2019-04-11T22:13:15.863Z,97717.57
2019-04-11T22:15:44.578Z,97705.02
2019-04-11T22:18:16.740Z,97703.02
2019-04-11T22:20:45.912Z,97699.44
2019-04-11T22:23:14.681Z,97699.66
2019-04-11T22:25:43.398Z,97706.90
2019-04-11T22:28:12.104Z,97718.92
2019-04-11T22:30:40.857Z,97723.58
2019-04-11T22:33:34.251Z,97725.28
2019-04-11T22:36:03.001Z,97727.39
2019-04-11T22:38:31.707Z,97726.04
2019-04-11T22:41:02.174Z,97728.69
2019-04-11T22:43:30.850Z,97735.56
2019-04-11T22:45:59.553Z,97734.73
2019-04-11T22:48:28.295Z,97737.82
2019-04-11T22:50:57.004Z,97735.75
2019-04-11T22:53:25.713Z,97738.00
2019-04-11T22:55:54.424Z,97739.27
2019-04-11T22:58:23.128Z,97737.91
2019-04-11T23:00:51.882Z,97731.82
2019-04-11T23:03:28.169Z,97727.78
2019-04-11T23:05:56.915Z,97729.99
2019-04-11T23:08:25.635Z,97728.95
2019-04-11T23:10:54.344Z,97728.98
2019-04-11T23:13:23.055Z,97727.17
2019-04-11T23:15:51.755Z,97719.90
2019-04-11T23:18:20.516Z,97722.53
2019-04-11T23:20:49.223Z,97719.12
2019-04-11T23:23:17.924Z,97720.00
2019-04-11T23:25:46.640Z,97721.72
2019-04-11T23:28:16.397Z,97717.44
2019-04-11T23:30:49.486Z,97709.23
2019-04-11T23:33:18.958Z,97703.72
2019-04-11T23:35:48.818Z,97709.30
2019-04-11T23:38:23.589Z,97700.98
2019-04-11T23:40:51.905Z,97700.23
2019-04-11T23:43:20.728Z,97702.61
2019-04-11T23:45:51.181Z,97688.42
2019-04-11T23:48:23.729Z,97688.55
2019-04-11T23:50:50.295Z,97689.89
2019-04-11T23:53:18.999Z,97686.94
2019-04-11T23:55:47.755Z,97687.27
2019-04-11T23:58:16.459Z,97691.16
